Arctic Titan — WDG2803 — position and weather

sailwx.info

Track history (hours):
 
Tides and Currents Weather Stations Pressure Air Temp Water Temp Dewpoint Dewpoint Depression Visibility Wind Speed Wind Dir Waves Ship Positions

Arctic Titan

Owner: Western Towboat Co., Seattle, WA. More information available from US FCC via Universal Licensing System and Coast Guard Vessel Documentation Center.

Last reported at 2017-Dec-10 00:00 UTC. Time now 2017-Dec-14 17:14 UTC.
Position N 59°30' W 143°24'.

Length 38 m; draft 6 m.

Type: Tow > 200 m length. MMSI: 367519450.

Wind from 050 at 33 knots

Barometer 993.2 mb
Visibility: greater than 2.2 NM
Water temperature 7.8 ° C

Date/timePositionNaut miles runAvg speedWind from/ knotsBaromVisibWave heightAir tempDewpointWater temp
2017-Dec-10 00:00N 59°30' W 143°24'55 9.2 050 / 33993.2 2.2 7.8
2017-Dec-09 18:00N 59°24' W 141°36'58 9.7 010 / 251004.8 2.2 5.0 8.0
2017-Dec-09 12:00N 59°06' W 139°48'50 8.3 130 / 141010.1 8.0
2017-Dec-09 06:00N 58°42' W 138°24'59 9.8 210 / 251010.2 2.2 5.0 8.0
2017-Dec-09 00:00N 58°12' W 136°48'24 6.7 050 / 181011.8 1.1 7.8
2017-Dec-08 20:23N 58°15' W 136°03'4 9.8
2017-Dec-08 19:57N 58°17' W 135°55'10 2.6
2017-Dec-08 15:54N 58°15' W 135°36'2 4.5
2017-Dec-08 15:28N 58°16' W 135°39'2 4.2
2017-Dec-08 15:01N 58°17' W 135°42'2 4.0
2017-Dec-08 14:30N 58°18' W 135°45'8 2.1
2017-Dec-08 10:51N 58°14' W 135°32'2 5.7
2017-Dec-08 10:30N 58°15' W 135°36'3 6.4
2017-Dec-08 10:00N 58°17' W 135°40'10 2.8
2017-Dec-08 06:16N 58°12' W 135°23'3 5.0
2017-Dec-08 05:39N 58°13' W 135°28'2 5.2
2017-Dec-08 05:18N 58°14' W 135°31'2 5.1
2017-Dec-08 04:58N 58°15' W 135°34'2 4.9
2017-Dec-08 04:30N 58°16' W 135°38'2 4.5
2017-Dec-08 04:00N 58°17' W 135°42'1 1.9
2017-Dec-08 03:30N 58°18' W 135°42'1 0.2
2017-Dec-07 22:12N 58°17' W 135°42'8 1.3
2017-Dec-07 16:19N 58°15' W 135°28'2 5.0
2017-Dec-07 16:00N 58°15' W 135°30'2 4.7
2017-Dec-07 15:29N 58°16' W 135°35'2 4.2
2017-Dec-07 15:00N 58°17' W 135°38'2 4.1
2017-Dec-07 14:30N 58°18' W 135°42'1 2.0
2017-Dec-07 14:00N 58°17' W 135°42'3 6.0
2017-Dec-07 13:26N 58°15' W 135°36'3 5.7
2017-Dec-07 12:56N 58°14' W 135°31'4 2.4
2017-Dec-07 11:12N 58°12' W 135°24'2 5.2
2017-Dec-07 10:46N 58°13' W 135°28'1 5.3
2017-Dec-07 10:30N 58°14' W 135°30'3 5.5
2017-Dec-07 10:00N 58°15' W 135°35'3 5.6
2017-Dec-07 09:30N 58°16' W 135°40'1 2.2
2017-Dec-07 09:00N 58°17' W 135°39'3 5.1
2017-Dec-07 08:27N 58°16' W 135°34'2 5.1
2017-Dec-07 07:59N 58°15' W 135°30'2 1.1
2017-Dec-07 05:53N 58°14' W 135°26'2 4.9
2017-Dec-07 05:27N 58°15' W 135°30'2 4.9
2017-Dec-07 04:59N 58°16' W 135°34'4 4.5
2017-Dec-07 04:11N 58°17' W 135°40'1 3.7
2017-Dec-07 04:00N 58°17' W 135°42'2 3.7
2017-Dec-07 03:30N 58°18' W 135°44'1 2.6
2017-Dec-07 02:59N 58°18' W 135°42'2 0.4
2017-Dec-06 22:23N 58°17' W 135°40'  
2017-Dec-02 09:39N 54°17' W 130°48'2 9.8
2017-Dec-02 09:25N 54°15' W 130°45'410.1
2017-Dec-02 09:00N 54°13' W 130°40'510.2
2017-Dec-02 08:30N 54°10' W 130°32'510.3
2017-Dec-02 08:00N 54°08' W 130°24'510.9
2017-Dec-02 07:30N 54°04' W 130°17'611.1
2017-Dec-02 07:00N 53°59' W 130°12'510.1
2017-Dec-02 06:30N 53°55' W 130°10'165 8.6
2017-Dec-01 11:15N 51°32' W 127°52'310.1
2017-Dec-01 11:00N 51°29' W 127°52'11 9.9
2017-Dec-01 09:56N 51°19' W 127°53'510.4
2017-Dec-01 09:29N 51°14' W 127°54'510.0
2017-Dec-01 09:00N 51°09' W 127°53'5 9.4
2017-Dec-01 08:30N 51°06' W 127°47'5 9.9
2017-Dec-01 08:00N 51°03' W 127°40'510.0
2017-Dec-01 07:30N 50°60' W 127°35'510.0
2017-Dec-01 07:00N 50°57' W 127°29'5 9.7
2017-Dec-01 06:30N 50°54' W 127°23'5 9.9
2017-Dec-01 06:00N 50°51' W 127°17'510.3
2017-Dec-01 05:30N 50°47' W 127°11'14 9.8
2017-Dec-01 04:05N 50°40' W 126°52'3 9.8
2017-Dec-01 03:48N 50°39' W 126°48'311.0
2017-Dec-01 03:29N 50°36' W 126°44'510.1
2017-Dec-01 03:00N 50°32' W 126°40'3612.1
2017-Dec-01 00:03N 50°23' W 125°47'114.5
2017-Dec-01 00:00N 50°22' W 125°46'812.2
2017-Nov-30 23:23N 50°22' W 125°34'512.6
2017-Nov-30 23:00N 50°20' W 125°27'510.3
2017-Nov-30 22:30N 50°16' W 125°24'4 8.6
2017-Nov-30 22:00N 50°11' W 125°22'4 8.6
2017-Nov-30 21:30N 50°07' W 125°20'4 7.1
2017-Nov-30 21:00N 50°05' W 125°16'3 6.1
2017-Nov-30 20:30N 50°02' W 125°14'3 6.0
2017-Nov-30 20:00N 49°60' W 125°12'2 4.9
2017-Nov-30 19:30N 49°58' W 125°10'5 9.3
2017-Nov-30 19:00N 49°54' W 125°05'5 9.9
2017-Nov-30 18:30N 49°51' W 124°59'5 9.9
2017-Nov-30 18:00N 49°48' W 124°53'510.2
2017-Nov-30 17:29N 49°45' W 124°47'610.5
2017-Nov-30 16:56N 49°41' W 124°40'510.6
2017-Nov-30 16:29N 49°39' W 124°33'610.5
2017-Nov-30 15:55N 49°36' W 124°25'2710.6
2017-Nov-30 13:24N 49°22' W 123°50'410.5
2017-Nov-30 13:00N 49°19' W 123°45'510.4
2017-Nov-30 12:30N 49°16' W 123°39'510.4
2017-Nov-30 11:59N 49°12' W 123°33'510.2
2017-Nov-30 11:30N 49°09' W 123°28'510.6
2017-Nov-30 10:59N 49°05' W 123°22'511.0
2017-Nov-30 10:30N 49°01' W 123°16'510.6
2017-Nov-30 10:00N 48°58' W 123°10'610.7
2017-Nov-30 09:25N 48°54' W 123°03'510.8
2017-Nov-30 09:00N 48°51' W 122°58'710.8
2017-Nov-30 08:24N 48°47' W 122°50'511.2
2017-Nov-30 08:00N 48°44' W 122°44'510.3
2017-Nov-30 07:30N 48°39' W 122°43'611.3
2017-Nov-30 07:00N 48°33' W 122°45'611.8
2017-Nov-30 06:30N 48°27' W 122°44'510.1
2017-Nov-30 06:00N 48°22' W 122°45'510.5
2017-Nov-30 05:30N 48°17' W 122°47'18 9.6
2017-Nov-30 03:39N 48°01' W 122°36'211.2
2017-Nov-30 03:29N 47°59' W 122°35'511.0
2017-Nov-30 03:00N 47°56' W 122°29'510.8
2017-Nov-30 02:30N 47°50' W 122°27'510.7
2017-Nov-30 02:00N 47°45' W 122°26'611.2
2017-Nov-30 01:30N 47°40' W 122°27'5 9.7
2017-Nov-30 01:00N 47°36' W 122°22'1 2.0
2017-Nov-30 00:30N 47°35' W 122°21'1 1.9
2017-Nov-30 00:00N 47°36' W 122°22'  
Track history (hours):
 
Tides and Currents Weather Stations Pressure Air Temp Water Temp Dewpoint Dewpoint Depression Visibility Wind Speed Wind Dir Waves Ship Positions

Arctic Titan

Owner: Western Towboat Co., Seattle, WA. More information available from US FCC via Universal Licensing System and Coast Guard Vessel Documentation Center.

Last reported at 2017-Dec-10 00:00 UTC. Time now 2017-Dec-14 17:14 UTC.
Position N 59°30' W 143°24'.

Length 38 m; draft 6 m.

Type: Tow > 200 m length. MMSI: 367519450.

Wind from 050 at 33 knots

Barometer 993.2 mb
Visibility: greater than 2.2 NM
Water temperature 7.8 ° C

Date/timePositionNaut miles runAvg speedWind from/ knotsBaromVisibWave heightAir tempDewpointWater temp
2017-Dec-10 00:00N 59°30' W 143°24'55 9.2 050 / 33993.2 2.2 7.8
2017-Dec-09 18:00N 59°24' W 141°36'58 9.7 010 / 251004.8 2.2 5.0 8.0
2017-Dec-09 12:00N 59°06' W 139°48'50 8.3 130 / 141010.1 8.0
2017-Dec-09 06:00N 58°42' W 138°24'59 9.8 210 / 251010.2 2.2 5.0 8.0
2017-Dec-09 00:00N 58°12' W 136°48'24 6.7 050 / 181011.8 1.1 7.8
2017-Dec-08 20:23N 58°15' W 136°03'4 9.8
2017-Dec-08 19:57N 58°17' W 135°55'10 2.6
2017-Dec-08 15:54N 58°15' W 135°36'2 4.5
2017-Dec-08 15:28N 58°16' W 135°39'2 4.2
2017-Dec-08 15:01N 58°17' W 135°42'2 4.0
2017-Dec-08 14:30N 58°18' W 135°45'8 2.1
2017-Dec-08 10:51N 58°14' W 135°32'2 5.7
2017-Dec-08 10:30N 58°15' W 135°36'3 6.4
2017-Dec-08 10:00N 58°17' W 135°40'10 2.8
2017-Dec-08 06:16N 58°12' W 135°23'3 5.0
2017-Dec-08 05:39N 58°13' W 135°28'2 5.2
2017-Dec-08 05:18N 58°14' W 135°31'2 5.1
2017-Dec-08 04:58N 58°15' W 135°34'2 4.9
2017-Dec-08 04:30N 58°16' W 135°38'2 4.5
2017-Dec-08 04:00N 58°17' W 135°42'1 1.9
2017-Dec-08 03:30N 58°18' W 135°42'1 0.2
2017-Dec-07 22:12N 58°17' W 135°42'8 1.3
2017-Dec-07 16:19N 58°15' W 135°28'2 5.0
2017-Dec-07 16:00N 58°15' W 135°30'2 4.7
2017-Dec-07 15:29N 58°16' W 135°35'2 4.2
2017-Dec-07 15:00N 58°17' W 135°38'2 4.1
2017-Dec-07 14:30N 58°18' W 135°42'1 2.0
2017-Dec-07 14:00N 58°17' W 135°42'3 6.0
2017-Dec-07 13:26N 58°15' W 135°36'3 5.7
2017-Dec-07 12:56N 58°14' W 135°31'4 2.4
2017-Dec-07 11:12N 58°12' W 135°24'2 5.2
2017-Dec-07 10:46N 58°13' W 135°28'1 5.3
2017-Dec-07 10:30N 58°14' W 135°30'3 5.5
2017-Dec-07 10:00N 58°15' W 135°35'3 5.6
2017-Dec-07 09:30N 58°16' W 135°40'1 2.2
2017-Dec-07 09:00N 58°17' W 135°39'3 5.1
2017-Dec-07 08:27N 58°16' W 135°34'2 5.1
2017-Dec-07 07:59N 58°15' W 135°30'2 1.1
2017-Dec-07 05:53N 58°14' W 135°26'2 4.9
2017-Dec-07 05:27N 58°15' W 135°30'2 4.9
2017-Dec-07 04:59N 58°16' W 135°34'4 4.5
2017-Dec-07 04:11N 58°17' W 135°40'1 3.7
2017-Dec-07 04:00N 58°17' W 135°42'2 3.7
2017-Dec-07 03:30N 58°18' W 135°44'1 2.6
2017-Dec-07 02:59N 58°18' W 135°42'2 0.4
2017-Dec-06 22:23N 58°17' W 135°40'  
2017-Dec-02 09:39N 54°17' W 130°48'2 9.8
2017-Dec-02 09:25N 54°15' W 130°45'410.1
2017-Dec-02 09:00N 54°13' W 130°40'510.2
2017-Dec-02 08:30N 54°10' W 130°32'510.3
2017-Dec-02 08:00N 54°08' W 130°24'510.9
2017-Dec-02 07:30N 54°04' W 130°17'611.1
2017-Dec-02 07:00N 53°59' W 130°12'510.1
2017-Dec-02 06:30N 53°55' W 130°10'165 8.6
2017-Dec-01 11:15N 51°32' W 127°52'310.1
2017-Dec-01 11:00N 51°29' W 127°52'11 9.9
2017-Dec-01 09:56N 51°19' W 127°53'510.4
2017-Dec-01 09:29N 51°14' W 127°54'510.0
2017-Dec-01 09:00N 51°09' W 127°53'5 9.4
2017-Dec-01 08:30N 51°06' W 127°47'5 9.9
2017-Dec-01 08:00N 51°03' W 127°40'510.0
2017-Dec-01 07:30N 50°60' W 127°35'510.0
2017-Dec-01 07:00N 50°57' W 127°29'5 9.7
2017-Dec-01 06:30N 50°54' W 127°23'5 9.9
2017-Dec-01 06:00N 50°51' W 127°17'510.3
2017-Dec-01 05:30N 50°47' W 127°11'14 9.8
2017-Dec-01 04:05N 50°40' W 126°52'3 9.8
2017-Dec-01 03:48N 50°39' W 126°48'311.0
2017-Dec-01 03:29N 50°36' W 126°44'510.1
2017-Dec-01 03:00N 50°32' W 126°40'3612.1
2017-Dec-01 00:03N 50°23' W 125°47'114.5
2017-Dec-01 00:00N 50°22' W 125°46'812.2
2017-Nov-30 23:23N 50°22' W 125°34'512.6
2017-Nov-30 23:00N 50°20' W 125°27'510.3
2017-Nov-30 22:30N 50°16' W 125°24'4 8.6
2017-Nov-30 22:00N 50°11' W 125°22'4 8.6
2017-Nov-30 21:30N 50°07' W 125°20'4 7.1
2017-Nov-30 21:00N 50°05' W 125°16'3 6.1
2017-Nov-30 20:30N 50°02' W 125°14'3 6.0
2017-Nov-30 20:00N 49°60' W 125°12'2 4.9
2017-Nov-30 19:30N 49°58' W 125°10'5 9.3
2017-Nov-30 19:00N 49°54' W 125°05'5 9.9
2017-Nov-30 18:30N 49°51' W 124°59'5 9.9
2017-Nov-30 18:00N 49°48' W 124°53'510.2
2017-Nov-30 17:29N 49°45' W 124°47'610.5
2017-Nov-30 16:56N 49°41' W 124°40'510.6
2017-Nov-30 16:29N 49°39' W 124°33'610.5
2017-Nov-30 15:55N 49°36' W 124°25'2710.6
2017-Nov-30 13:24N 49°22' W 123°50'410.5
2017-Nov-30 13:00N 49°19' W 123°45'510.4
2017-Nov-30 12:30N 49°16' W 123°39'510.4
2017-Nov-30 11:59N 49°12' W 123°33'510.2
2017-Nov-30 11:30N 49°09' W 123°28'510.6
2017-Nov-30 10:59N 49°05' W 123°22'511.0
2017-Nov-30 10:30N 49°01' W 123°16'510.6
2017-Nov-30 10:00N 48°58' W 123°10'610.7
2017-Nov-30 09:25N 48°54' W 123°03'510.8
2017-Nov-30 09:00N 48°51' W 122°58'710.8
2017-Nov-30 08:24N 48°47' W 122°50'511.2
2017-Nov-30 08:00N 48°44' W 122°44'510.3
2017-Nov-30 07:30N 48°39' W 122°43'611.3
2017-Nov-30 07:00N 48°33' W 122°45'611.8
2017-Nov-30 06:30N 48°27' W 122°44'510.1
2017-Nov-30 06:00N 48°22' W 122°45'510.5
2017-Nov-30 05:30N 48°17' W 122°47'18 9.6
2017-Nov-30 03:39N 48°01' W 122°36'211.2
2017-Nov-30 03:29N 47°59' W 122°35'511.0
2017-Nov-30 03:00N 47°56' W 122°29'510.8
2017-Nov-30 02:30N 47°50' W 122°27'510.7
2017-Nov-30 02:00N 47°45' W 122°26'611.2
2017-Nov-30 01:30N 47°40' W 122°27'5 9.7
2017-Nov-30 01:00N 47°36' W 122°22'1 2.0
2017-Nov-30 00:30N 47°35' W 122°21'1 1.9
2017-Nov-30 00:00N 47°36' W 122°22'  

Dump ship's entire track history